sensor_id;sensor_type;location;lat;lon;timestamp;P1;durP1;ratioP1;P2;durP2;ratioP2
3405;SDS011;10008;48.682;9.016;2023-09-18T00:00:46;14.70;;;13.40;;
3405;SDS011;10008;48.682;9.016;2023-09-18T00:03:15;14.70;;;13.30;;
3405;SDS011;10008;48.682;9.016;2023-09-18T00:05:48;14.50;;;13.10;;
3405;SDS011;10008;48.682;9.016;2023-09-18T00:08:15;14.60;;;13.20;;
3405;SDS011;10008;48.682;9.016;2023-09-18T00:10:42;14.87;;;13.63;;
3405;SDS011;10008;48.682;9.016;2023-09-18T00:13:11;13.60;;;12.50;;
3405;SDS011;10008;48.682;9.016;2023-09-18T00:15:36;14.80;;;13.40;;
3405;SDS011;10008;48.682;9.016;2023-09-18T00:18:03;14.07;;;12.90;;
3405;SDS011;10008;48.682;9.016;2023-09-18T00:20:30;14.67;;;13.40;;
3405;SDS011;10008;48.682;9.016;2023-09-18T00:22:56;15.23;;;13.63;;
3405;SDS011;10008;48.682;9.016;2023-09-18T00:25:22;14.77;;;13.47;;
3405;SDS011;10008;48.682;9.016;2023-09-18T00:27:48;13.90;;;12.80;;
3405;SDS011;10008;48.682;9.016;2023-09-18T00:30:14;14.30;;;12.93;;
3405;SDS011;10008;48.682;9.016;2023-09-18T00:32:39;13.93;;;12.73;;
3405;SDS011;10008;48.682;9.016;2023-09-18T00:35:05;13.97;;;12.87;;
3405;SDS011;10008;48.682;9.016;2023-09-18T00:37:31;13.87;;;12.67;;
3405;SDS011;10008;48.682;9.016;2023-09-18T00:39:57;13.93;;;12.73;;
3405;SDS011;10008;48.682;9.016;2023-09-18T00:42:23;14.03;;;12.73;;
3405;SDS011;10008;48.682;9.016;2023-09-18T00:44:49;14.20;;;12.90;;
3405;SDS011;10008;48.682;9.016;2023-09-18T00:47:18;13.40;;;12.30;;
3405;SDS011;10008;48.682;9.016;2023-09-18T00:49:45;13.53;;;12.43;;
3405;SDS011;10008;48.682;9.016;2023-09-18T00:52:13;14.10;;;12.90;;
3405;SDS011;10008;48.682;9.016;2023-09-18T00:54:40;14.37;;;13.17;;
3405;SDS011;10008;48.682;9.016;2023-09-18T00:57:08;15.03;;;13.73;;
3405;SDS011;10008;48.682;9.016;2023-09-18T00:59:35;14.60;;;13.33;;
3405;SDS011;10008;48.682;9.016;2023-09-18T01:02:02;13.67;;;12.57;;
3405;SDS011;10008;48.682;9.016;2023-09-18T01:04:28;15.23;;;13.67;;
3405;SDS011;10008;48.682;9.016;2023-09-18T01:06:55;14.90;;;13.60;;
3405;SDS011;10008;48.682;9.016;2023-09-18T01:09:23;14.07;;;12.87;;
3405;SDS011;10008;48.682;9.016;2023-09-18T01:12:03;14.13;;;12.83;;
3405;SDS011;10008;48.682;9.016;2023-09-18T01:17:21;14.57;;;13.27;;
3405;SDS011;10008;48.682;9.016;2023-09-18T01:19:47;14.37;;;13.07;;
3405;SDS011;10008;48.682;9.016;2023-09-18T01:22:14;14.43;;;13.23;;
3405;SDS011;10008;48.682;9.016;2023-09-18T01:24:42;13.97;;;12.77;;
3405;SDS011;10008;48.682;9.016;2023-09-18T01:27:10;13.93;;;12.77;;
3405;SDS011;10008;48.682;9.016;2023-09-18T01:29:40;14.50;;;13.20;;
3405;SDS011;10008;48.682;9.016;2023-09-18T01:32:06;13.50;;;12.37;;
3405;SDS011;10008;48.682;9.016;2023-09-18T01:34:33;13.87;;;12.77;;
3405;SDS011;10008;48.682;9.016;2023-09-18T01:37:01;14.50;;;13.10;;
3405;SDS011;10008;48.682;9.016;2023-09-18T01:39:29;13.83;;;12.53;;
3405;SDS011;10008;48.682;9.016;2023-09-18T01:42:01;13.53;;;12.43;;
3405;SDS011;10008;48.682;9.016;2023-09-18T01:44:28;15.00;;;13.60;;
3405;SDS011;10008;48.682;9.016;2023-09-18T01:46:54;14.27;;;13.07;;
3405;SDS011;10008;48.682;9.016;2023-09-18T01:49:31;14.67;;;13.17;;
3405;SDS011;10008;48.682;9.016;2023-09-18T01:51:58;15.50;;;13.10;;
3405;SDS011;10008;48.682;9.016;2023-09-18T01:54:24;16.00;;;12.47;;
3405;SDS011;10008;48.682;9.016;2023-09-18T01:56:51;17.83;;;13.13;;
3405;SDS011;10008;48.682;9.016;2023-09-18T01:59:18;14.60;;;13.10;;
3405;SDS011;10008;48.682;9.016;2023-09-18T02:01:45;15.97;;;12.53;;
3405;SDS011;10008;48.682;9.016;2023-09-18T02:04:11;15.57;;;12.90;;
3405;SDS011;10008;48.682;9.016;2023-09-18T02:06:37;15.70;;;12.03;;
3405;SDS011;10008;48.682;9.016;2023-09-18T02:09:03;17.17;;;11.53;;
3405;SDS011;10008;48.682;9.016;2023-09-18T02:11:29;13.93;;;12.43;;
3405;SDS011;10008;48.682;9.016;2023-09-18T02:13:55;16.60;;;11.77;;
3405;SDS011;10008;48.682;9.016;2023-09-18T02:16:21;17.10;;;11.80;;
3405;SDS011;10008;48.682;9.016;2023-09-18T02:18:47;15.63;;;11.50;;
3405;SDS011;10008;48.682;9.016;2023-09-18T02:21:20;15.27;;;11.23;;
3405;SDS011;10008;48.682;9.016;2023-09-18T02:23:49;19.70;;;11.17;;
3405;SDS011;10008;48.682;9.016;2023-09-18T02:26:16;17.20;;;12.00;;
3405;SDS011;10008;48.682;9.016;2023-09-18T02:28:42;20.90;;;13.20;;
3405;SDS011;10008;48.682;9.016;2023-09-18T02:31:08;20.17;;;12.20;;
3405;SDS011;10008;48.682;9.016;2023-09-18T02:33:34;22.10;;;13.47;;
3405;SDS011;10008;48.682;9.016;2023-09-18T02:36:00;17.17;;;12.07;;
3405;SDS011;10008;48.682;9.016;2023-09-18T02:38:27;17.40;;;13.10;;
3405;SDS011;10008;48.682;9.016;2023-09-18T02:40:53;17.80;;;12.13;;
3405;SDS011;10008;48.682;9.016;2023-09-18T02:43:20;20.43;;;12.90;;
3405;SDS011;10008;48.682;9.016;2023-09-18T02:45:46;15.93;;;12.43;;
3405;SDS011;10008;48.682;9.016;2023-09-18T02:48:12;15.60;;;12.90;;
3405;SDS011;10008;48.682;9.016;2023-09-18T02:50:38;16.80;;;12.60;;
3405;SDS011;10008;48.682;9.016;2023-09-18T02:53:05;17.57;;;12.50;;
3405;SDS011;10008;48.682;9.016;2023-09-18T02:55:33;14.30;;;12.13;;
3405;SDS011;10008;48.682;9.016;2023-09-18T02:58:00;18.90;;;12.63;;
3405;SDS011;10008;48.682;9.016;2023-09-18T03:00:25;20.13;;;13.50;;
3405;SDS011;10008;48.682;9.016;2023-09-18T03:02:51;22.47;;;13.33;;
3405;SDS011;10008;48.682;9.016;2023-09-18T03:05:17;16.43;;;12.87;;
3405;SDS011;10008;48.682;9.016;2023-09-18T03:07:42;19.13;;;12.53;;
3405;SDS011;10008;48.682;9.016;2023-09-18T03:10:10;19.63;;;12.67;;
3405;SDS011;10008;48.682;9.016;2023-09-18T03:12:39;18.30;;;13.40;;
3405;SDS011;10008;48.682;9.016;2023-09-18T03:15:05;17.47;;;13.03;;
3405;SDS011;10008;48.682;9.016;2023-09-18T03:17:33;18.97;;;13.07;;
3405;SDS011;10008;48.682;9.016;2023-09-18T03:19:59;16.27;;;12.17;;
3405;SDS011;10008;48.682;9.016;2023-09-18T03:22:25;16.83;;;11.97;;
3405;SDS011;10008;48.682;9.016;2023-09-18T03:24:52;17.73;;;11.80;;
3405;SDS011;10008;48.682;9.016;2023-09-18T03:27:17;14.63;;;12.53;;
3405;SDS011;10008;48.682;9.016;2023-09-18T03:29:43;16.60;;;11.53;;
3405;SDS011;10008;48.682;9.016;2023-09-18T03:32:09;17.43;;;12.50;;
3405;SDS011;10008;48.682;9.016;2023-09-18T03:34:37;17.50;;;12.00;;
3405;SDS011;10008;48.682;9.016;2023-09-18T03:37:03;19.77;;;12.37;;
3405;SDS011;10008;48.682;9.016;2023-09-18T03:39:29;15.77;;;11.27;;
3405;SDS011;10008;48.682;9.016;2023-09-18T03:41:55;15.07;;;11.87;;
3405;SDS011;10008;48.682;9.016;2023-09-18T03:44:21;17.13;;;11.70;;
3405;SDS011;10008;48.682;9.016;2023-09-18T03:46:46;27.63;;;23.40;;
3405;SDS011;10008;48.682;9.016;2023-09-18T03:49:12;18.47;;;12.07;;
3405;SDS011;10008;48.682;9.016;2023-09-18T03:51:38;15.60;;;12.10;;
3405;SDS011;10008;48.682;9.016;2023-09-18T03:54:04;18.90;;;12.23;;
3405;SDS011;10008;48.682;9.016;2023-09-18T03:56:29;13.23;;;11.80;;
3405;SDS011;10008;48.682;9.016;2023-09-18T03:58:55;15.43;;;12.70;;
3405;SDS011;10008;48.682;9.016;2023-09-18T04:01:23;14.83;;;11.83;;
3405;SDS011;10008;48.682;9.016;2023-09-18T04:03:49;18.50;;;12.73;;
3405;SDS011;10008;48.682;9.016;2023-09-18T04:06:15;21.43;;;14.17;;
3405;SDS011;10008;48.682;9.016;2023-09-18T04:08:40;17.57;;;13.07;;
3405;SDS011;10008;48.682;9.016;2023-09-18T04:11:06;17.60;;;12.80;;
3405;SDS011;10008;48.682;9.016;2023-09-18T04:13:34;18.40;;;12.60;;
3405;SDS011;10008;48.682;9.016;2023-09-18T04:16:00;19.50;;;13.43;;
3405;SDS011;10008;48.682;9.016;2023-09-18T04:18:26;18.20;;;12.90;;
3405;SDS011;10008;48.682;9.016;2023-09-18T04:20:53;18.30;;;13.20;;
3405;SDS011;10008;48.682;9.016;2023-09-18T04:23:22;14.53;;;12.93;;
3405;SDS011;10008;48.682;9.016;2023-09-18T04:25:51;16.43;;;12.70;;
3405;SDS011;10008;48.682;9.016;2023-09-18T04:28:19;15.77;;;12.97;;
3405;SDS011;10008;48.682;9.016;2023-09-18T04:30:45;15.83;;;13.53;;
3405;SDS011;10008;48.682;9.016;2023-09-18T04:33:14;17.20;;;13.10;;
3405;SDS011;10008;48.682;9.016;2023-09-18T04:35:41;13.87;;;12.47;;
3405;SDS011;10008;48.682;9.016;2023-09-18T04:38:08;15.47;;;12.50;;
3405;SDS011;10008;48.682;9.016;2023-09-18T04:40:36;13.90;;;12.50;;
3405;SDS011;10008;48.682;9.016;2023-09-18T04:43:02;16.97;;;13.20;;
3405;SDS011;10008;48.682;9.016;2023-09-18T04:45:31;14.53;;;12.77;;
3405;SDS011;10008;48.682;9.016;2023-09-18T04:47:57;15.50;;;12.67;;
3405;SDS011;10008;48.682;9.016;2023-09-18T04:50:23;13.53;;;12.33;;
3405;SDS011;10008;48.682;9.016;2023-09-18T04:52:52;15.33;;;12.70;;
3405;SDS011;10008;48.682;9.016;2023-09-18T04:55:19;14.80;;;13.17;;
3405;SDS011;10008;48.682;9.016;2023-09-18T04:57:46;15.47;;;12.80;;
3405;SDS011;10008;48.682;9.016;2023-09-18T05:00:12;16.17;;;13.30;;
3405;SDS011;10008;48.682;9.016;2023-09-18T05:02:39;14.50;;;12.60;;
3405;SDS011;10008;48.682;9.016;2023-09-18T05:05:05;14.90;;;13.13;;
3405;SDS011;10008;48.682;9.016;2023-09-18T05:07:34;14.87;;;13.37;;
3405;SDS011;10008;48.682;9.016;2023-09-18T05:10:00;14.00;;;12.50;;
3405;SDS011;10008;48.682;9.016;2023-09-18T05:12:25;17.23;;;12.60;;
3405;SDS011;10008;48.682;9.016;2023-09-18T05:14:51;14.13;;;12.60;;
3405;SDS011;10008;48.682;9.016;2023-09-18T05:17:17;13.93;;;12.00;;
3405;SDS011;10008;48.682;9.016;2023-09-18T05:19:43;13.47;;;12.07;;
3405;SDS011;10008;48.682;9.016;2023-09-18T05:22:09;12.90;;;11.60;;
3405;SDS011;10008;48.682;9.016;2023-09-18T05:24:36;13.30;;;11.50;;
3405;SDS011;10008;48.682;9.016;2023-09-18T05:27:05;13.30;;;11.93;;
3405;SDS011;10008;48.682;9.016;2023-09-18T05:29:32;13.10;;;11.83;;
3405;SDS011;10008;48.682;9.016;2023-09-18T05:31:58;14.10;;;12.10;;
3405;SDS011;10008;48.682;9.016;2023-09-18T05:34:24;13.47;;;11.40;;
3405;SDS011;10008;48.682;9.016;2023-09-18T05:36:49;17.70;;;11.90;;
3405;SDS011;10008;48.682;9.016;2023-09-18T05:39:15;17.83;;;12.33;;
3405;SDS011;10008;48.682;9.016;2023-09-18T05:41:42;17.97;;;11.87;;
3405;SDS011;10008;48.682;9.016;2023-09-18T05:44:07;15.90;;;12.07;;
3405;SDS011;10008;48.682;9.016;2023-09-18T05:46:34;15.63;;;12.60;;
3405;SDS011;10008;48.682;9.016;2023-09-18T05:49:00;13.60;;;12.00;;
3405;SDS011;10008;48.682;9.016;2023-09-18T05:51:26;14.07;;;11.70;;
3405;SDS011;10008;48.682;9.016;2023-09-18T05:53:52;16.07;;;12.00;;
3405;SDS011;10008;48.682;9.016;2023-09-18T05:56:18;14.43;;;11.87;;
3405;SDS011;10008;48.682;9.016;2023-09-18T05:58:44;14.33;;;11.63;;
3405;SDS011;10008;48.682;9.016;2023-09-18T06:01:10;12.77;;;11.53;;
3405;SDS011;10008;48.682;9.016;2023-09-18T06:03:35;14.97;;;11.57;;
3405;SDS011;10008;48.682;9.016;2023-09-18T06:06:02;13.90;;;12.33;;
3405;SDS011;10008;48.682;9.016;2023-09-18T06:08:28;13.87;;;12.20;;
3405;SDS011;10008;48.682;9.016;2023-09-18T06:10:56;14.00;;;11.00;;
3405;SDS011;10008;48.682;9.016;2023-09-18T06:13:23;14.50;;;11.93;;
3405;SDS011;10008;48.682;9.016;2023-09-18T06:15:49;11.93;;;10.87;;
3405;SDS011;10008;48.682;9.016;2023-09-18T06:18:17;13.60;;;11.40;;
3405;SDS011;10008;48.682;9.016;2023-09-18T06:20:46;15.40;;;11.97;;
3405;SDS011;10008;48.682;9.016;2023-09-18T06:23:13;12.17;;;10.97;;
3405;SDS011;10008;48.682;9.016;2023-09-18T06:25:39;12.37;;;10.83;;
3405;SDS011;10008;48.682;9.016;2023-09-18T06:28:05;13.23;;;11.50;;
3405;SDS011;10008;48.682;9.016;2023-09-18T06:30:31;12.17;;;10.87;;
3405;SDS011;10008;48.682;9.016;2023-09-18T06:32:58;12.90;;;10.90;;
3405;SDS011;10008;48.682;9.016;2023-09-18T06:35:25;12.57;;;11.27;;
3405;SDS011;10008;48.682;9.016;2023-09-18T06:37:50;12.70;;;11.20;;
3405;SDS011;10008;48.682;9.016;2023-09-18T06:40:16;16.33;;;11.07;;
3405;SDS011;10008;48.682;9.016;2023-09-18T06:42:42;11.60;;;10.40;;
3405;SDS011;10008;48.682;9.016;2023-09-18T06:45:11;13.00;;;10.40;;
3405;SDS011;10008;48.682;9.016;2023-09-18T06:47:37;12.73;;;11.40;;
3405;SDS011;10008;48.682;9.016;2023-09-18T06:50:05;12.00;;;10.70;;
3405;SDS011;10008;48.682;9.016;2023-09-18T06:52:31;14.00;;;10.80;;
3405;SDS011;10008;48.682;9.016;2023-09-18T06:54:56;12.70;;;10.70;;
3405;SDS011;10008;48.682;9.016;2023-09-18T06:57:25;12.07;;;10.93;;
3405;SDS011;10008;48.682;9.016;2023-09-18T06:59:51;12.60;;;11.10;;
3405;SDS011;10008;48.682;9.016;2023-09-18T07:02:17;13.93;;;11.70;;
3405;SDS011;10008;48.682;9.016;2023-09-18T07:04:42;12.00;;;10.80;;
3405;SDS011;10008;48.682;9.016;2023-09-18T07:07:14;17.30;;;11.47;;
3405;SDS011;10008;48.682;9.016;2023-09-18T07:09:43;12.47;;;11.37;;
3405;SDS011;10008;48.682;9.016;2023-09-18T07:12:09;14.77;;;11.40;;
3405;SDS011;10008;48.682;9.016;2023-09-18T07:14:35;12.63;;;11.07;;
3405;SDS011;10008;48.682;9.016;2023-09-18T07:17:01;19.57;;;10.93;;
3405;SDS011;10008;48.682;9.016;2023-09-18T07:19:27;12.80;;;11.23;;
3405;SDS011;10008;48.682;9.016;2023-09-18T07:21:53;12.27;;;11.07;;
3405;SDS011;10008;48.682;9.016;2023-09-18T07:24:19;14.80;;;11.50;;
3405;SDS011;10008;48.682;9.016;2023-09-18T07:26:46;13.40;;;11.27;;
3405;SDS011;10008;48.682;9.016;2023-09-18T07:29:13;13.33;;;10.70;;
3405;SDS011;10008;48.682;9.016;2023-09-18T07:31:41;12.23;;;10.90;;
3405;SDS011;10008;48.682;9.016;2023-09-18T07:34:07;12.13;;;10.67;;
3405;SDS011;10008;48.682;9.016;2023-09-18T07:36:33;12.63;;;11.30;;
3405;SDS011;10008;48.682;9.016;2023-09-18T07:38:59;14.90;;;11.27;;
3405;SDS011;10008;48.682;9.016;2023-09-18T07:41:25;11.57;;;10.47;;
3405;SDS011;10008;48.682;9.016;2023-09-18T07:43:51;12.90;;;10.40;;
3405;SDS011;10008;48.682;9.016;2023-09-18T07:46:16;11.87;;;10.63;;
3405;SDS011;10008;48.682;9.016;2023-09-18T07:48:42;14.23;;;10.90;;
3405;SDS011;10008;48.682;9.016;2023-09-18T07:51:11;14.87;;;10.70;;
3405;SDS011;10008;48.682;9.016;2023-09-18T07:53:37;11.70;;;10.60;;
3405;SDS011;10008;48.682;9.016;2023-09-18T07:56:04;12.10;;;10.80;;
3405;SDS011;10008;48.682;9.016;2023-09-18T07:58:30;12.97;;;11.80;;
3405;SDS011;10008;48.682;9.016;2023-09-18T08:00:58;12.90;;;10.90;;
3405;SDS011;10008;48.682;9.016;2023-09-18T08:03:25;13.20;;;11.23;;
3405;SDS011;10008;48.682;9.016;2023-09-18T08:05:51;11.97;;;10.63;;
3405;SDS011;10008;48.682;9.016;2023-09-18T08:08:19;11.90;;;10.70;;
3405;SDS011;10008;48.682;9.016;2023-09-18T08:10:46;11.70;;;10.60;;
3405;SDS011;10008;48.682;9.016;2023-09-18T08:13:12;11.10;;;10.20;;
3405;SDS011;10008;48.682;9.016;2023-09-18T08:15:38;11.80;;;10.70;;
3405;SDS011;10008;48.682;9.016;2023-09-18T08:18:04;12.20;;;10.90;;
3405;SDS011;10008;48.682;9.016;2023-09-18T08:20:30;11.90;;;10.90;;
3405;SDS011;10008;48.682;9.016;2023-09-18T08:22:55;13.17;;;10.87;;
3405;SDS011;10008;48.682;9.016;2023-09-18T08:25:21;11.40;;;10.30;;
3405;SDS011;10008;48.682;9.016;2023-09-18T08:27:47;11.43;;;10.40;;
3405;SDS011;10008;48.682;9.016;2023-09-18T08:30:13;11.40;;;10.30;;
3405;SDS011;10008;48.682;9.016;2023-09-18T08:32:41;11.23;;;10.00;;
3405;SDS011;10008;48.682;9.016;2023-09-18T08:35:07;10.90;;;9.90;;
3405;SDS011;10008;48.682;9.016;2023-09-18T08:37:34;11.20;;;10.00;;
3405;SDS011;10008;48.682;9.016;2023-09-18T08:40:00;11.33;;;10.33;;
3405;SDS011;10008;48.682;9.016;2023-09-18T08:42:27;10.90;;;9.90;;
3405;SDS011;10008;48.682;9.016;2023-09-18T08:44:58;13.47;;;10.00;;
3405;SDS011;10008;48.682;9.016;2023-09-18T08:47:25;11.60;;;10.53;;
3405;SDS011;10008;48.682;9.016;2023-09-18T08:49:51;13.80;;;10.93;;
3405;SDS011;10008;48.682;9.016;2023-09-18T08:52:19;13.23;;;10.87;;
3405;SDS011;10008;48.682;9.016;2023-09-18T08:54:46;13.20;;;11.90;;
3405;SDS011;10008;48.682;9.016;2023-09-18T08:57:12;13.10;;;11.80;;
3405;SDS011;10008;48.682;9.016;2023-09-18T08:59:39;13.10;;;11.70;;
3405;SDS011;10008;48.682;9.016;2023-09-18T09:02:06;13.43;;;11.90;;
3405;SDS011;10008;48.682;9.016;2023-09-18T09:04:32;14.30;;;12.77;;
3405;SDS011;10008;48.682;9.016;2023-09-18T09:29:57;18.10;;;14.93;;
3405;SDS011;10008;48.682;9.016;2023-09-18T09:32:29;19.87;;;15.20;;
3405;SDS011;10008;48.682;9.016;2023-09-18T09:34:57;16.50;;;13.93;;
3405;SDS011;10008;48.682;9.016;2023-09-18T09:37:31;17.47;;;14.07;;
3405;SDS011;10008;48.682;9.016;2023-09-18T09:39:57;15.90;;;14.10;;
3405;SDS011;10008;48.682;9.016;2023-09-18T09:42:38;15.80;;;14.03;;
3405;SDS011;10008;48.682;9.016;2023-09-18T09:45:05;18.57;;;13.63;;
3405;SDS011;10008;48.682;9.016;2023-09-18T09:47:41;15.47;;;13.13;;
3405;SDS011;10008;48.682;9.016;2023-09-18T09:50:16;15.37;;;12.90;;
3405;SDS011;10008;48.682;9.016;2023-09-18T09:52:44;15.97;;;12.83;;
3405;SDS011;10008;48.682;9.016;2023-09-18T09:57:59;14.67;;;13.07;;
3405;SDS011;10008;48.682;9.016;2023-09-18T10:00:46;15.63;;;13.00;;
3405;SDS011;10008;48.682;9.016;2023-09-18T10:03:15;14.20;;;12.73;;
3405;SDS011;10008;48.682;9.016;2023-09-18T10:05:43;18.37;;;12.70;;
3405;SDS011;10008;48.682;9.016;2023-09-18T10:08:12;15.00;;;13.40;;
3405;SDS011;10008;48.682;9.016;2023-09-18T10:10:45;15.77;;;13.23;;
3405;SDS011;10008;48.682;9.016;2023-09-18T10:13:25;15.20;;;13.37;;
3405;SDS011;10008;48.682;9.016;2023-09-18T10:15:57;14.87;;;12.70;;
3405;SDS011;10008;48.682;9.016;2023-09-18T10:18:42;16.87;;;12.60;;
3405;SDS011;10008;48.682;9.016;2023-09-18T10:21:26;14.77;;;12.87;;
3405;SDS011;10008;48.682;9.016;2023-09-18T10:24:17;15.20;;;12.70;;
3405;SDS011;10008;48.682;9.016;2023-09-18T10:26:56;14.80;;;13.13;;
3405;SDS011;10008;48.682;9.016;2023-09-18T10:29:28;19.03;;;13.10;;
3405;SDS011;10008;48.682;9.016;2023-09-18T10:31:55;15.87;;;12.83;;
3405;SDS011;10008;48.682;9.016;2023-09-18T10:34:22;16.47;;;13.23;;
3405;SDS011;10008;48.682;9.016;2023-09-18T10:36:52;14.03;;;12.63;;
3405;SDS011;10008;48.682;9.016;2023-09-18T10:39:23;16.93;;;12.40;;
3405;SDS011;10008;48.682;9.016;2023-09-18T10:41:55;14.17;;;12.30;;
3405;SDS011;10008;48.682;9.016;2023-09-18T10:44:25;15.47;;;12.97;;
3405;SDS011;10008;48.682;9.016;2023-09-18T10:46:51;16.30;;;12.47;;
3405;SDS011;10008;48.682;9.016;2023-09-18T10:49:18;14.70;;;13.20;;
3405;SDS011;10008;48.682;9.016;2023-09-18T10:51:45;14.80;;;13.17;;
3405;SDS011;10008;48.682;9.016;2023-09-18T10:54:15;16.33;;;12.90;;
3405;SDS011;10008;48.682;9.016;2023-09-18T10:56:45;14.83;;;13.33;;
3405;SDS011;10008;48.682;9.016;2023-09-18T10:59:11;15.80;;;13.40;;
3405;SDS011;10008;48.682;9.016;2023-09-18T11:01:36;14.10;;;11.97;;
3405;SDS011;10008;48.682;9.016;2023-09-18T11:04:03;13.87;;;12.37;;
3405;SDS011;10008;48.682;9.016;2023-09-18T11:09:26;14.03;;;12.27;;
3405;SDS011;10008;48.682;9.016;2023-09-18T11:11:53;13.90;;;12.10;;
3405;SDS011;10008;48.682;9.016;2023-09-18T11:17:38;12.33;;;11.13;;
3405;SDS011;10008;48.682;9.016;2023-09-18T11:20:05;12.43;;;11.17;;
3405;SDS011;10008;48.682;9.016;2023-09-18T11:22:49;12.80;;;11.20;;
3405;SDS011;10008;48.682;9.016;2023-09-18T11:27:59;11.50;;;10.50;;
3405;SDS011;10008;48.682;9.016;2023-09-18T11:30:27;11.13;;;10.20;;
3405;SDS011;10008;48.682;9.016;2023-09-18T11:32:54;10.57;;;9.67;;
3405;SDS011;10008;48.682;9.016;2023-09-18T11:35:20;10.07;;;9.10;;
3405;SDS011;10008;48.682;9.016;2023-09-18T11:37:46;11.53;;;10.33;;
3405;SDS011;10008;48.682;9.016;2023-09-18T11:40:30;10.50;;;9.50;;
3405;SDS011;10008;48.682;9.016;2023-09-18T11:46:00;10.37;;;9.33;;
3405;SDS011;10008;48.682;9.016;2023-09-18T11:48:30;9.80;;;9.00;;
3405;SDS011;10008;48.682;9.016;2023-09-18T11:50:59;10.03;;;9.13;;
3405;SDS011;10008;48.682;9.016;2023-09-18T11:53:28;10.37;;;9.47;;
3405;SDS011;10008;48.682;9.016;2023-09-18T11:55:54;10.90;;;9.90;;
3405;SDS011;10008;48.682;9.016;2023-09-18T11:58:20;11.00;;;9.90;;
3405;SDS011;10008;48.682;9.016;2023-09-18T12:00:52;11.20;;;10.30;;
3405;SDS011;10008;48.682;9.016;2023-09-18T12:03:22;10.43;;;9.53;;
3405;SDS011;10008;48.682;9.016;2023-09-18T12:05:58;10.30;;;9.40;;
3405;SDS011;10008;48.682;9.016;2023-09-18T12:08:26;10.97;;;9.87;;
3405;SDS011;10008;48.682;9.016;2023-09-18T12:10:56;11.07;;;10.17;;
3405;SDS011;10008;48.682;9.016;2023-09-18T12:13:26;11.20;;;10.30;;
3405;SDS011;10008;48.682;9.016;2023-09-18T12:15:59;12.50;;;10.90;;
3405;SDS011;10008;48.682;9.016;2023-09-18T12:18:31;12.60;;;10.90;;
3405;SDS011;10008;48.682;9.016;2023-09-18T12:20:59;11.43;;;10.43;;
3405;SDS011;10008;48.682;9.016;2023-09-18T12:23:29;11.33;;;10.37;;
3405;SDS011;10008;48.682;9.016;2023-09-18T12:26:01;11.83;;;10.63;;
3405;SDS011;10008;48.682;9.016;2023-09-18T12:28:28;11.23;;;10.23;;
3405;SDS011;10008;48.682;9.016;2023-09-18T12:30:55;11.23;;;10.23;;
3405;SDS011;10008;48.682;9.016;2023-09-18T12:33:24;11.77;;;10.70;;
3405;SDS011;10008;48.682;9.016;2023-09-18T12:35:50;11.63;;;10.53;;
3405;SDS011;10008;48.682;9.016;2023-09-18T12:38:17;12.13;;;11.03;;
3405;SDS011;10008;48.682;9.016;2023-09-18T12:40:50;14.43;;;12.80;;
3405;SDS011;10008;48.682;9.016;2023-09-18T12:43:16;12.50;;;11.40;;
3405;SDS011;10008;48.682;9.016;2023-09-18T12:45:43;13.10;;;11.90;;
3405;SDS011;10008;48.682;9.016;2023-09-18T12:48:11;13.10;;;11.90;;
3405;SDS011;10008;48.682;9.016;2023-09-18T12:50:38;13.00;;;11.80;;
3405;SDS011;10008;48.682;9.016;2023-09-18T12:53:10;12.60;;;11.37;;
3405;SDS011;10008;48.682;9.016;2023-09-18T12:55:37;12.90;;;11.70;;
3405;SDS011;10008;48.682;9.016;2023-09-18T12:58:05;13.17;;;11.97;;
3405;SDS011;10008;48.682;9.016;2023-09-18T13:00:33;13.03;;;11.83;;
3405;SDS011;10008;48.682;9.016;2023-09-18T13:03:00;13.50;;;12.20;;
3405;SDS011;10008;48.682;9.016;2023-09-18T13:05:29;14.13;;;12.00;;
3405;SDS011;10008;48.682;9.016;2023-09-18T13:08:01;13.70;;;12.20;;
3405;SDS011;10008;48.682;9.016;2023-09-18T13:10:28;13.03;;;11.73;;
3405;SDS011;10008;48.682;9.016;2023-09-18T13:12:54;13.60;;;12.40;;
3405;SDS011;10008;48.682;9.016;2023-09-18T13:15:38;13.30;;;12.10;;
3405;SDS011;10008;48.682;9.016;2023-09-18T13:18:10;13.30;;;12.10;;
3405;SDS011;10008;48.682;9.016;2023-09-18T13:20:37;13.40;;;12.00;;
3405;SDS011;10008;48.682;9.016;2023-09-18T13:23:02;12.67;;;11.47;;
3405;SDS011;10008;48.682;9.016;2023-09-18T13:25:29;13.03;;;11.83;;
3405;SDS011;10008;48.682;9.016;2023-09-18T13:28:07;13.40;;;12.20;;
3405;SDS011;10008;48.682;9.016;2023-09-18T13:30:35;14.50;;;13.20;;
3405;SDS011;10008;48.682;9.016;2023-09-18T13:33:06;15.67;;;13.60;;
3405;SDS011;10008;48.682;9.016;2023-09-18T13:35:32;14.90;;;13.50;;
3405;SDS011;10008;48.682;9.016;2023-09-18T13:37:59;14.80;;;13.40;;
3405;SDS011;10008;48.682;9.016;2023-09-18T13:40:25;14.53;;;13.13;;
3405;SDS011;10008;48.682;9.016;2023-09-18T13:42:51;14.00;;;12.70;;
3405;SDS011;10008;48.682;9.016;2023-09-18T13:45:16;14.47;;;13.17;;
3405;SDS011;10008;48.682;9.016;2023-09-18T13:47:42;15.60;;;14.13;;
3405;SDS011;10008;48.682;9.016;2023-09-18T13:50:08;14.43;;;12.93;;
3405;SDS011;10008;48.682;9.016;2023-09-18T13:52:35;14.13;;;12.80;;
3405;SDS011;10008;48.682;9.016;2023-09-18T13:55:02;14.60;;;13.20;;
3405;SDS011;10008;48.682;9.016;2023-09-18T13:57:33;14.00;;;12.73;;
3405;SDS011;10008;48.682;9.016;2023-09-18T14:00:00;14.13;;;12.73;;
3405;SDS011;10008;48.682;9.016;2023-09-18T14:02:41;14.00;;;12.50;;
3405;SDS011;10008;48.682;9.016;2023-09-18T14:05:07;14.20;;;12.70;;
3405;SDS011;10008;48.682;9.016;2023-09-18T14:07:34;13.93;;;12.73;;
3405;SDS011;10008;48.682;9.016;2023-09-18T14:10:00;14.30;;;12.90;;
3405;SDS011;10008;48.682;9.016;2023-09-18T14:12:29;14.30;;;12.80;;
3405;SDS011;10008;48.682;9.016;2023-09-18T14:14:56;14.43;;;13.03;;
3405;SDS011;10008;48.682;9.016;2023-09-18T14:17:22;14.20;;;12.80;;
3405;SDS011;10008;48.682;9.016;2023-09-18T14:19:48;14.83;;;13.43;;
3405;SDS011;10008;48.682;9.016;2023-09-18T14:22:14;13.93;;;12.63;;
3405;SDS011;10008;48.682;9.016;2023-09-18T14:24:40;13.97;;;12.50;;
3405;SDS011;10008;48.682;9.016;2023-09-18T14:27:06;13.90;;;12.40;;
3405;SDS011;10008;48.682;9.016;2023-09-18T14:29:32;13.57;;;12.37;;
3405;SDS011;10008;48.682;9.016;2023-09-18T14:31:59;14.17;;;12.83;;
3405;SDS011;10008;48.682;9.016;2023-09-18T14:34:25;14.10;;;12.80;;
3405;SDS011;10008;48.682;9.016;2023-09-18T14:36:51;14.20;;;12.70;;
3405;SDS011;10008;48.682;9.016;2023-09-18T14:39:17;13.77;;;12.37;;
3405;SDS011;10008;48.682;9.016;2023-09-18T14:41:43;16.23;;;12.90;;
3405;SDS011;10008;48.682;9.016;2023-09-18T14:44:09;15.13;;;13.30;;
3405;SDS011;10008;48.682;9.016;2023-09-18T14:46:36;14.60;;;13.20;;
3405;SDS011;10008;48.682;9.016;2023-09-18T14:49:02;14.83;;;13.40;;
3405;SDS011;10008;48.682;9.016;2023-09-18T14:51:29;14.80;;;13.40;;
3405;SDS011;10008;48.682;9.016;2023-09-18T14:53:55;14.40;;;13.10;;
3405;SDS011;10008;48.682;9.016;2023-09-18T14:56:21;15.10;;;13.60;;
3405;SDS011;10008;48.682;9.016;2023-09-18T14:58:47;15.13;;;13.47;;
3405;SDS011;10008;48.682;9.016;2023-09-18T15:01:13;14.50;;;13.10;;
3405;SDS011;10008;48.682;9.016;2023-09-18T15:03:39;14.60;;;13.20;;
3405;SDS011;10008;48.682;9.016;2023-09-18T15:06:06;14.40;;;13.00;;
3405;SDS011;10008;48.682;9.016;2023-09-18T15:08:33;14.43;;;12.93;;
3405;SDS011;10008;48.682;9.016;2023-09-18T15:10:59;14.10;;;12.70;;
3405;SDS011;10008;48.682;9.016;2023-09-18T15:13:25;14.33;;;12.93;;
3405;SDS011;10008;48.682;9.016;2023-09-18T15:15:50;14.43;;;13.03;;
3405;SDS011;10008;48.682;9.016;2023-09-18T15:18:16;14.73;;;13.33;;